Mc Faddin, Texas
Current Conditions -  °F | °C
As of 12:15 AM on Sunday 26 Oct 2014 (Local Time) from KPKV Reporting Station
Clear Clear  
Wind Chill: 18°   Ceiling: Unl
Heat Index: 18°   Visibility: 10mi
Dew Point: 16°   Wind: 3mph
Humidity: 89%   Direction: 160°SSE
Pressure: 30.09"   Gusts: NA
Location:  28.5526°N, 97.018°W
Report Text: KPKV 260515Z AUTO 16003KT 10SM CLR 18/16 A3009 RMK AO2 T01790161
Loading
Personal Weather Stations






























Interactive Weather Map
Tropical Storm Tracking
New forecast layout! Learn more

10-Day Weather Forecast

Advertisements
Track Severe Weather on mobile